Time;durP1;ratioP1;P1;durP2;ratioP2;P2;SDS_P1;SDS_P2;PMS_P1;PMS_P2;Temp;Humidity;BMP_temperature;BMP_pressure;BME280_temperature;BME280_humidity;BME280_pressure;Samples;Min_cycle;Max_cycle;Signal;HPM_P1;HPM_P2
2022/01/08 00:00:42;;;;;;;4.87;4.47;;;;;;;4.39;66.62;94944.84;6170817;23;20194;-62
2022/01/08 00:03:07;;;;;;;4.70;4.30;;;;;;;4.39;66.85;94948.28;6145931;23;20190;-61
2022/01/08 00:05:33;;;;;;;4.77;4.37;;;;;;;4.46;66.50;94937.41;6194396;23;20232;-64
2022/01/08 00:07:58;;;;;;;5.23;4.73;;;;;;;4.48;66.66;94941.53;6194385;23;20205;-64
2022/01/08 00:10:24;;;;;;;5.50;4.67;;;;;;;4.39;66.80;94942.25;6170617;23;20205;-63
2022/01/08 00:12:50;;;;;;;5.40;4.87;;;;;;;4.35;66.63;94941.63;6170116;23;20217;-64
2022/01/08 00:15:16;;;;;;;5.03;4.47;;;;;;;4.37;66.96;94947.56;6196984;23;20169;-62
2022/01/08 00:17:42;;;;;;;5.20;4.70;;;;;;;4.41;66.88;94948.16;6170053;23;20217;-63
2022/01/08 00:20:08;;;;;;;5.10;4.70;;;;;;;4.45;66.78;94951.38;6169257;23;20201;-62
2022/01/08 00:22:34;;;;;;;5.57;5.07;;;;;;;4.54;66.79;94958.47;6170278;23;20200;-62
2022/01/08 00:24:59;;;;;;;4.83;4.43;;;;;;;4.37;67.13;94952.78;6169542;23;20216;-63
2022/01/08 00:27:25;;;;;;;5.70;4.77;;;;;;;4.33;67.32;94943.56;6195635;23;20212;-64
2022/01/08 00:29:51;;;;;;;4.67;4.27;;;;;;;4.27;67.38;94940.56;6170727;23;20241;-64
2022/01/08 00:32:17;;;;;;;4.60;4.20;;;;;;;4.25;67.50;94940.69;6169897;23;20198;-63
2022/01/08 00:34:43;;;;;;;4.80;4.30;;;;;;;4.33;67.05;94940.94;6170722;23;20204;-65
2022/01/08 00:37:09;;;;;;;4.40;4.00;;;;;;;4.29;67.00;94936.91;6170116;23;20269;-64
2022/01/08 00:39:35;;;;;;;4.80;4.40;;;;;;;4.31;67.05;94927.22;6169671;23;20206;-64
2022/01/08 00:42:01;;;;;;;4.30;3.97;;;;;;;4.18;67.01;94919.50;6170579;23;20277;-62
2022/01/08 00:44:26;;;;;;;4.40;4.00;;;;;;;4.24;67.38;94923.41;6170462;23;20194;-65
2022/01/08 00:46:52;;;;;;;4.10;3.80;;;;;;;4.27;66.82;94920.56;6169995;23;20205;-63
2022/01/08 00:49:18;;;;;;;3.80;3.50;;;;;;;4.25;66.90;94925.06;6170030;23;20197;-63
2022/01/08 00:51:43;;;;;;;3.70;3.40;;;;;;;4.24;67.11;94931.22;6196221;23;20206;-64
2022/01/08 00:54:09;;;;;;;3.87;3.57;;;;;;;4.26;66.88;94931.09;6196590;23;20232;-62
2022/01/08 00:56:34;;;;;;;3.47;3.17;;;;;;;4.37;66.67;94938.94;6195395;23;20249;-64
2022/01/08 00:59:00;;;;;;;3.57;3.27;;;;;;;4.39;66.16;94924.03;6195731;23;20249;-63
2022/01/08 01:01:25;;;;;;;4.00;3.60;;;;;;;4.33;66.44;94922.72;6168801;23;20202;-62
2022/01/08 01:03:51;;;;;;;3.70;3.40;;;;;;;4.36;66.25;94916.47;6168956;23;20194;-65
2022/01/08 01:06:17;;;;;;;4.03;3.73;;;;;;;4.33;66.59;94920.13;6169776;23;20221;-65
2022/01/08 01:08:42;;;;;;;3.83;3.43;;;;;;;4.31;66.53;94927.22;6169109;23;20208;-62
2022/01/08 01:11:08;;;;;;;4.17;3.77;;;;;;;4.29;66.65;94912.66;6168611;23;20201;-63
2022/01/08 01:13:33;;;;;;;3.87;3.47;;;;;;;4.30;66.44;94912.53;6169062;23;20257;-64
2022/01/08 01:16:01;;;;;;;3.60;3.30;;;;;;;4.40;66.19;94905.69;6168913;23;20217;-63
2022/01/08 01:18:27;;;;;;;3.57;3.27;;;;;;;4.42;66.29;94903.78;6194034;23;20194;-63
2022/01/08 01:20:52;;;;;;;3.13;2.93;;;;;;;4.46;66.17;94906.16;6194998;23;20187;-66
2022/01/08 01:23:20;;;;;;;3.27;2.97;;;;;;;4.41;66.45;94903.91;6195306;23;20205;-63
2022/01/08 01:25:51;;;;;;;3.20;2.90;;;;;;;4.41;66.30;94896.09;6169877;23;20244;-67
2022/01/08 01:28:38;;;;;;;3.47;3.17;;;;;;;4.33;66.97;94888.88;6169888;23;20198;-65
2022/01/08 01:47:16;;;;;;;3.47;3.17;;;;;;;4.25;67.17;94873.03;6195312;23;20232;-64
2022/01/08 01:49:44;;;;;;;3.30;3.00;;;;;;;4.13;67.75;94879.16;6168667;23;20194;-64
2022/01/08 01:52:12;;;;;;;3.60;3.30;;;;;;;4.14;67.76;94881.66;6194606;23;20244;-63
2022/01/08 01:54:38;;;;;;;3.10;2.80;;;;;;;4.15;67.90;94867.69;6193880;23;20245;-65
2022/01/08 01:57:05;;;;;;;3.53;3.23;;;;;;;4.06;68.09;94873.56;6167754;23;20178;-62
2022/01/08 01:59:32;;;;;;;2.87;2.67;;;;;;;4.01;67.98;94864.44;6195177;23;20210;-62
2022/01/08 02:01:59;;;;;;;3.20;2.90;;;;;;;4.02;68.51;94866.13;6193667;23;20241;-63
2022/01/08 02:04:25;;;;;;;3.30;3.00;;;;;;;3.98;68.34;94863.75;6194319;23;20214;-63
2022/01/08 02:06:51;;;;;;;3.20;2.90;;;;;;;4.09;68.26;94865.56;6193214;23;20225;-63
2022/01/08 02:09:17;;;;;;;3.20;2.90;;;;;;;4.09;68.03;94864.69;6168859;23;20178;-63
2022/01/08 02:12:03;;;;;;;3.17;2.87;;;;;;;4.03;68.40;94852.97;6192481;23;20202;-63
2022/01/08 02:14:32;;;;;;;3.47;3.17;;;;;;;4.09;68.56;94856.88;6194399;23;20228;-63
2022/01/08 02:16:58;;;;;;;4.03;3.40;;;;;;;3.98;68.32;94858.56;6169151;23;20194;-65
2022/01/08 02:19:24;;;;;;;3.00;2.80;;;;;;;4.05;68.00;94853.72;6169770;23;20253;-63
2022/01/08 02:21:56;;;;;;;3.70;3.40;;;;;;;4.00;68.58;94852.41;6169796;23;20194;-65
2022/01/08 02:24:22;;;;;;;3.67;3.30;;;;;;;3.86;68.71;94843.84;6194994;23;20196;-63
2022/01/08 02:26:48;;;;;;;3.67;3.37;;;;;;;3.90;68.65;94829.69;6194092;23;20237;-63
2022/01/08 02:29:16;;;;;;;3.93;3.47;;;;;;;4.01;68.35;94823.69;6168572;23;20332;-62
2022/01/08 02:31:55;;;;;;;3.40;3.10;;;;;;;4.01;68.29;94823.69;6169381;23;20201;-65
2022/01/08 02:34:21;;;;;;;4.03;3.20;;;;;;;4.05;68.46;94825.09;6194102;23;20206;-63
2022/01/08 02:36:47;;;;;;;3.90;3.47;;;;;;;4.05;67.76;94816.47;6169574;23;20248;-62
2022/01/08 02:39:12;;;;;;;3.60;3.17;;;;;;;3.93;68.39;94813.84;6195344;23;20189;-64
2022/01/08 02:41:39;;;;;;;3.07;2.73;;;;;;;3.98;68.41;94810.88;6193360;23;20252;-66
2022/01/08 02:44:09;;;;;;;3.60;3.30;;;;;;;3.98;68.50;94809.13;6168307;23;20202;-62
2022/01/08 02:46:34;;;;;;;4.00;3.60;;;;;;;4.02;68.14;94803.69;6169152;23;20201;-62
2022/01/08 02:49:00;;;;;;;3.70;3.40;;;;;;;3.96;68.69;94795.41;6168511;23;20198;-66
2022/01/08 02:51:25;;;;;;;3.40;3.10;;;;;;;4.06;68.41;94797.28;6194929;23;20225;-62
2022/01/08 02:53:51;;;;;;;2.90;2.70;;;;;;;4.02;68.34;94788.91;6169916;23;20233;-62
2022/01/08 02:56:17;;;;;;;4.30;2.77;;;;;;;4.12;68.13;94789.84;6169728;23;20194;-62
2022/01/08 02:58:43;;;;;;;3.57;3.27;;;;;;;4.06;67.91;94795.50;6169178;23;20201;-65
2022/01/08 03:01:09;;;;;;;3.20;2.90;;;;;;;4.07;68.01;94791.16;6168767;23;20229;-63
2022/01/08 03:03:34;;;;;;;3.93;3.53;;;;;;;4.09;67.97;94784.88;6169603;23;20198;-62
2022/01/08 03:06:00;;;;;;;3.60;3.30;;;;;;;4.16;67.92;94791.25;6168960;23;20189;-64
2022/01/08 03:08:26;;;;;;;3.73;3.43;;;;;;;4.21;67.99;94788.31;6166933;23;20277;-62
2022/01/08 03:10:53;;;;;;;3.50;3.20;;;;;;;4.24;68.04;94793.28;6168943;23;20256;-66
2022/01/08 03:13:18;;;;;;;3.37;3.07;;;;;;;4.22;67.95;94792.56;6169108;23;20221;-65
2022/01/08 03:15:44;;;;;;;4.93;3.90;;;;;;;4.17;68.10;94795.53;6168647;23;20197;-63
2022/01/08 03:18:09;;;;;;;3.30;3.00;;;;;;;4.08;68.11;94785.81;6169112;23;20190;-63
2022/01/08 03:20:43;;;;;;;3.50;3.20;;;;;;;4.13;68.32;94785.47;6193944;23;20202;-62
2022/01/08 03:23:14;;;;;;;3.60;3.30;;;;;;;4.17;68.18;94786.88;6167798;23;20240;-62
2022/01/08 03:25:39;;;;;;;3.77;3.37;;;;;;;4.15;67.97;94789.63;6193992;23;20208;-64
2022/01/08 03:28:05;;;;;;;3.47;3.17;;;;;;;4.14;67.96;94787.13;6193521;23;20190;-64
2022/01/08 03:30:30;;;;;;;3.13;2.93;;;;;;;4.20;67.88;94792.69;6168431;23;20182;-63
2022/01/08 03:32:56;;;;;;;3.30;3.00;;;;;;;4.16;67.62;94783.44;6168127;23;20189;-66
2022/01/08 03:35:22;;;;;;;3.73;3.43;;;;;;;4.18;67.65;94796.34;6194509;23;20229;-62
2022/01/08 03:37:47;;;;;;;3.47;3.17;;;;;;;4.10;68.15;94793.50;6168293;23;20209;-63
2022/01/08 03:40:13;;;;;;;4.00;3.27;;;;;;;4.22;67.59;94795.16;6193856;23;20217;-64
2022/01/08 03:42:38;;;;;;;3.17;2.87;;;;;;;4.23;67.34;94803.81;6194645;23;20182;-64
2022/01/08 03:45:04;;;;;;;2.77;2.57;;;;;;;4.15;67.70;94791.38;6194966;23;20201;-66
2022/01/08 03:47:52;;;;;;;3.23;3.00;;;;;;;4.19;67.54;94787.59;6169418;23;20236;-63
2022/01/08 03:50:16;;;;;;;2.80;2.60;;;;;;;4.21;67.70;94777.91;6195239;23;20208;-63
2022/01/08 03:52:41;;;;;;;2.90;2.60;;;;;;;4.27;67.54;94774.81;6168458;23;20194;-63
2022/01/08 03:55:07;;;;;;;3.53;3.23;;;;;;;4.15;67.83;94762.75;6168039;23;20209;-63
2022/01/08 03:57:33;;;;;;;2.97;2.77;;;;;;;4.18;68.00;94765.13;6193795;23;20190;-63
2022/01/08 03:59:58;;;;;;;3.20;2.90;;;;;;;4.22;68.10;94763.94;6193464;23;20253;-64
2022/01/08 04:02:24;;;;;;;2.70;2.50;;;;;;;4.18;68.43;94759.94;6167371;23;20213;-63
2022/01/08 04:04:49;;;;;;;2.90;2.70;;;;;;;4.16;67.98;94754.81;6168583;23;20194;-63
2022/01/08 04:07:15;;;;;;;2.47;2.27;;;;;;;4.21;68.07;94767.50;6192346;23;20236;-63
2022/01/08 04:09:41;;;;;;;2.77;2.57;;;;;;;4.16;67.98;94754.00;6193088;23;20213;-63
2022/01/08 04:12:07;;;;;;;2.73;2.53;;;;;;;4.12;68.23;94748.22;6167452;23;20186;-63
2022/01/08 04:14:48;;;;;;;2.83;2.60;;;;;;;4.11;68.24;94750.94;6192796;23;20213;-63
2022/01/08 04:17:16;;;;;;;3.27;2.97;;;;;;;4.07;68.78;94752.94;6168311;23;20213;-62
2022/01/08 04:19:41;;;;;;;2.70;2.50;;;;;;;4.07;68.63;94744.31;6168824;23;20202;-63
2022/01/08 04:22:11;;;;;;;2.70;2.50;;;;;;;4.17;68.33;94753.03;6168633;23;20202;-63
2022/01/08 04:24:38;;;;;;;2.73;2.53;;;;;;;4.24;68.47;94754.22;6193823;23;20230;-63
2022/01/08 04:27:04;;;;;;;3.13;2.83;;;;;;;4.25;68.09;94762.84;6194428;23;20182;-63
2022/01/08 04:29:29;;;;;;;3.27;3.07;;;;;;;4.29;68.13;94752.09;6169197;23;20201;-63
2022/01/08 04:31:55;;;;;;;3.23;3.03;;;;;;;4.26;67.88;94765.34;6166750;23;20249;-62
2022/01/08 04:34:21;;;;;;;3.60;3.30;;;;;;;4.29;68.30;94752.09;6194219;23;20194;-62
2022/01/08 04:36:46;;;;;;;3.43;3.13;;;;;;;4.26;68.08;94743.72;6168986;23;20190;-63
2022/01/08 04:39:12;;;;;;;2.70;2.50;;;;;;;4.42;67.79;94758.00;6195565;23;20253;-63
2022/01/08 04:41:37;;;;;;;2.60;2.40;;;;;;;4.28;68.19;94753.06;6195423;23;20194;-61
2022/01/08 04:44:06;;;;;;;3.17;2.80;;;;;;;4.18;68.22;94754.72;6196167;23;20205;-61
2022/01/08 04:46:32;;;;;;;3.50;2.70;;;;;;;4.27;68.64;94756.59;6169985;23;20194;-61
2022/01/08 04:48:57;;;;;;;3.10;2.83;;;;;;;4.22;68.39;94760.50;6169188;23;20248;-62
2022/01/08 04:51:22;;;;;;;3.23;2.90;;;;;;;4.32;68.23;94754.47;6194769;23;20178;-62
2022/01/08 04:53:48;;;;;;;2.70;2.37;;;;;;;4.23;68.44;94752.59;6195571;23;20209;-62
2022/01/08 04:56:13;;;;;;;2.50;2.30;;;;;;;4.24;68.36;94758.63;6195096;23;20213;-62
2022/01/08 04:58:40;;;;;;;2.70;2.40;;;;;;;4.15;68.68;94757.56;6170776;23;20194;-63
2022/01/08 05:01:11;;;;;;;2.37;2.10;;;;;;;4.17;68.63;94758.25;6196347;23;20202;-62
2022/01/08 05:03:37;;;;;;;2.60;2.40;;;;;;;4.16;68.57;94754.00;6194649;23;20189;-62
2022/01/08 05:06:02;;;;;;;2.50;2.30;;;;;;;4.14;68.71;94750.69;6170611;23;20182;-62
2022/01/08 05:08:28;;;;;;;2.33;2.13;;;;;;;4.17;68.55;94750.44;6169800;23;20202;-63
2022/01/08 05:10:53;;;;;;;2.50;2.30;;;;;;;4.37;68.29;94757.53;6169900;23;20296;-63
2022/01/08 05:13:19;;;;;;;2.63;2.20;;;;;;;4.32;68.27;94758.84;6169867;23;20202;-61
2022/01/08 05:15:44;;;;;;;2.60;2.40;;;;;;;4.22;68.27;94753.50;6196597;23;20245;-62
2022/01/08 05:18:11;;;;;;;3.10;2.63;;;;;;;4.26;68.40;94754.94;6195364;23;20221;-62
2022/01/08 05:20:39;;;;;;;2.43;2.23;;;;;;;4.33;68.43;94755.28;6194954;23;20205;-65
2022/01/08 05:23:05;;;;;;;3.03;2.80;;;;;;;4.36;68.35;94750.69;6195342;23;20229;-63
2022/01/08 05:25:31;;;;;;;3.17;2.87;;;;;;;4.39;67.96;94755.63;6195901;23;20223;-63
2022/01/08 05:27:59;;;;;;;2.57;2.37;;;;;;;4.38;68.28;94750.53;6169037;23;20204;-63
2022/01/08 05:30:25;;;;;;;2.33;2.13;;;;;;;4.20;68.51;94747.63;6169892;23;20185;-63
2022/01/08 05:32:52;;;;;;;2.80;2.60;;;;;;;4.33;68.21;94750.06;6170564;23;20209;-63
2022/01/08 05:35:19;;;;;;;5.30;2.80;;;;;;;4.31;68.21;94744.19;6195194;23;20249;-63
2022/01/08 05:37:44;;;;;;;2.30;2.10;;;;;;;4.34;68.58;94742.16;6168740;23;20364;-61
2022/01/08 05:40:10;;;;;;;2.63;2.30;;;;;;;4.41;68.21;94738.13;6193436;23;20209;-61
2022/01/08 05:42:36;;;;;;;2.57;2.37;;;;;;;4.41;68.07;94732.94;6166984;23;20190;-64
2022/01/08 05:45:03;;;;;;;3.00;2.70;;;;;;;4.34;68.30;94733.53;6168683;23;20189;-62
2022/01/08 05:47:33;;;;;;;2.60;2.40;;;;;;;4.37;68.26;94744.50;6195430;23;20198;-62
2022/01/08 05:49:59;;;;;;;2.63;2.33;;;;;;;4.39;68.04;94739.19;6195178;23;20194;-65
2022/01/08 05:52:25;;;;;;;2.27;2.03;;;;;;;4.40;68.24;94744.28;6169976;23;20256;-62
2022/01/08 05:54:50;;;;;;;3.53;2.50;;;;;;;4.40;68.08;94744.28;6169686;23;20199;-63
2022/01/08 05:57:16;;;;;;;2.90;2.60;;;;;;;4.39;68.27;94745.22;6194378;23;20204;-62
2022/01/08 05:59:41;;;;;;;2.87;2.57;;;;;;;4.44;68.21;94737.06;6194680;23;20194;-64
2022/01/08 06:02:09;;;;;;;2.90;2.70;;;;;;;4.36;68.73;94740.28;6169148;23;20264;-62
2022/01/08 06:04:35;;;;;;;2.90;2.60;;;;;;;4.38;68.56;94733.16;6193634;23;20213;-62
2022/01/08 06:07:00;;;;;;;2.40;2.20;;;;;;;4.47;68.21;94741.19;6167814;23;20202;-62
2022/01/08 06:09:26;;;;;;;2.30;2.10;;;;;;;4.47;68.14;94736.81;6168559;23;20249;-62
2022/01/08 06:11:51;;;;;;;2.93;2.63;;;;;;;4.54;68.06;94735.34;6169120;23;20175;-61
2022/01/08 06:14:17;;;;;;;2.50;2.30;;;;;;;4.54;68.07;94731.94;6168772;23;20221;-65
2022/01/08 06:16:42;;;;;;;4.37;2.23;;;;;;;4.50;68.15;94731.38;6169375;23;20198;-64
2022/01/08 06:19:13;;;;;;;2.50;2.30;;;;;;;4.51;68.24;94740.81;6193560;23;20198;-63
2022/01/08 06:21:38;;;;;;;2.90;2.10;;;;;;;4.54;68.21;94734.53;6168723;23;20182;-62
2022/01/08 06:24:05;;;;;;;1.77;1.67;;;;;;;4.65;67.75;94734.50;6195550;23;20178;-62
2022/01/08 06:26:31;;;;;;;1.97;1.83;;;;;;;4.58;67.90;94733.34;6169587;23;20253;-63
2022/01/08 06:28:57;;;;;;;1.93;1.83;;;;;;;4.60;67.85;94726.25;6194887;23;20198;-62
2022/01/08 06:31:24;;;;;;;1.90;1.70;;;;;;;4.64;67.93;94727.66;6194082;23;20204;-63
2022/01/08 06:33:50;;;;;;;3.13;1.97;;;;;;;4.61;67.94;94728.72;6168019;23;20194;-62
2022/01/08 06:36:22;;;;;;;3.63;2.10;;;;;;;4.60;67.98;94739.28;6168034;23;20188;-63
2022/01/08 06:38:48;;;;;;;3.57;2.30;;;;;;;4.57;68.08;94727.34;6193828;23;20201;-62
2022/01/08 06:41:14;;;;;;;2.47;1.90;;;;;;;4.70;67.98;94731.53;6194604;23;20213;-62
2022/01/08 06:43:40;;;;;;;2.20;1.83;;;;;;;4.61;68.17;94730.50;6169119;23;20209;-63
2022/01/08 06:46:05;;;;;;;3.43;2.20;;;;;;;4.81;67.47;94727.13;6169488;23;20189;-63
2022/01/08 06:48:31;;;;;;;2.67;1.83;;;;;;;4.73;67.57;94724.31;6169232;23;20178;-62
2022/01/08 06:50:57;;;;;;;2.07;1.90;;;;;;;4.76;68.03;94725.84;6193359;23;20232;-62
2022/01/08 06:53:22;;;;;;;2.10;1.90;;;;;;;4.80;67.61;94720.25;6194474;23;20216;-62
2022/01/08 06:55:48;;;;;;;2.47;1.63;;;;;;;4.73;67.74;94715.66;6168998;23;20256;-63
2022/01/08 06:58:13;;;;;;;1.80;1.70;;;;;;;4.79;67.54;94716.00;6167831;23;20213;-62
2022/01/08 07:00:39;;;;;;;3.50;1.80;;;;;;;4.78;67.61;94719.53;6194664;23;20182;-63
2022/01/08 07:03:09;;;;;;;2.10;1.90;;;;;;;4.86;67.65;94721.53;6169617;23;20241;-63
2022/01/08 07:05:38;;;;;;;1.87;1.63;;;;;;;4.85;67.51;94722.50;6168631;23;20205;-64
2022/01/08 07:08:04;;;;;;;1.80;1.70;;;;;;;4.83;67.44;94721.78;6192874;23;20214;-62
2022/01/08 07:10:30;;;;;;;1.53;1.43;;;;;;;4.88;67.30;94716.22;6194730;23;20220;-65
2022/01/08 07:12:55;;;;;;;1.90;1.80;;;;;;;4.88;67.32;94724.84;6193175;23;20252;-62
2022/01/08 07:15:21;;;;;;;2.17;1.70;;;;;;;4.88;67.50;94721.44;6193915;23;20185;-62
2022/01/08 07:17:46;;;;;;;2.40;1.90;;;;;;;4.87;67.28;94720.59;6168713;23;20185;-62
2022/01/08 07:20:12;;;;;;;5.50;2.23;;;;;;;4.91;67.39;94719.38;6166487;23;20222;-63
2022/01/08 07:22:39;;;;;;;2.87;2.20;;;;;;;4.84;67.22;94713.03;6193973;23;20201;-63
2022/01/08 07:25:05;;;;;;;1.60;1.50;;;;;;;4.99;67.17;94716.16;6194359;23;20268;-62
2022/01/08 07:27:32;;;;;;;2.00;1.60;;;;;;;5.05;66.73;94721.72;6193216;23;20196;-63
2022/01/08 07:29:59;;;;;;;2.17;2.07;;;;;;;5.06;66.76;94719.94;6168406;23;20174;-65
2022/01/08 07:32:25;;;;;;;3.30;2.20;;;;;;;5.06;66.91;94718.16;6191312;23;20265;-60
2022/01/08 07:34:51;;;;;;;2.63;1.90;;;;;;;5.06;66.76;94717.31;6192781;23;20221;-63
2022/01/08 07:37:16;;;;;;;3.60;2.00;;;;;;;5.12;66.64;94716.81;6168394;23;20194;-63
2022/01/08 07:39:42;;;;;;;2.03;1.87;;;;;;;5.03;66.63;94712.38;6169082;23;20217;-64
2022/01/08 07:42:07;;;;;;;2.00;1.80;;;;;;;5.01;67.08;94712.47;6167813;23;20189;-62
2022/01/08 07:44:33;;;;;;;1.90;1.73;;;;;;;5.03;66.83;94718.41;6193798;23;20206;-66
2022/01/08 07:47:00;;;;;;;1.53;1.40;;;;;;;5.15;66.36;94718.34;6168339;23;20229;-62
2022/01/08 07:49:26;;;;;;;2.33;1.83;;;;;;;5.11;67.00;94719.56;6193897;23;20201;-63
2022/01/08 07:51:51;;;;;;;3.20;1.80;;;;;;;5.17;66.83;94719.88;6194690;23;20274;-63
2022/01/08 07:54:17;;;;;;;2.10;1.70;;;;;;;5.14;66.49;94709.69;6194445;23;20170;-64
2022/01/08 07:56:42;;;;;;;2.80;1.60;;;;;;;5.15;66.24;94719.16;6194311;23;20202;-62
2022/01/08 07:59:08;;;;;;;2.33;1.90;;;;;;;5.25;65.88;94721.84;6167707;23;20194;-64
2022/01/08 08:01:33;;;;;;;3.67;1.93;;;;;;;5.29;66.28;94718.03;6168443;23;20201;-62
2022/01/08 08:03:59;;;;;;;1.73;1.43;;;;;;;5.44;65.84;94715.94;6167211;23;20194;-65
2022/01/08 08:06:24;;;;;;;1.50;1.37;;;;;;;5.44;65.42;94726.38;6167516;23;20194;-62
2022/01/08 08:08:50;;;;;;;1.93;1.70;;;;;;;5.48;65.01;94712.09;6168765;23;20178;-62
2022/01/08 08:11:15;;;;;;;1.53;1.33;;;;;;;5.41;64.65;94706.59;6169962;23;20201;-65
2022/01/08 08:13:41;;;;;;;5.63;1.63;;;;;;;5.42;64.93;94718.66;6195636;23;20194;-65
2022/01/08 08:16:07;;;;;;;2.07;1.80;;;;;;;5.41;65.32;94717.00;6193154;23;20210;-63
2022/01/08 08:18:33;;;;;;;1.93;1.50;;;;;;;5.55;64.99;94718.47;6192363;23;20190;-64
2022/01/08 08:20:58;;;;;;;2.17;1.57;;;;;;;5.63;64.84;94717.81;6169793;23;20206;-64
2022/01/08 08:23:24;;;;;;;2.60;1.77;;;;;;;5.70;64.38;94717.19;6168901;23;20210;-64
2022/01/08 08:25:50;;;;;;;3.90;1.77;;;;;;;5.88;63.62;94708.75;6169435;23;20252;-64
2022/01/08 08:28:15;;;;;;;1.70;1.57;;;;;;;5.82;63.70;94701.44;6169508;23;20205;-64
2022/01/08 08:30:41;;;;;;;1.53;1.43;;;;;;;5.87;63.56;94696.66;6194543;23;20190;-64
2022/01/08 08:33:06;;;;;;;1.87;1.77;;;;;;;5.95;63.51;94707.28;6193993;23;20178;-62
2022/01/08 08:35:33;;;;;;;2.03;1.87;;;;;;;5.99;63.36;94703.47;6168149;23;20194;-63
2022/01/08 08:37:58;;;;;;;2.10;1.50;;;;;;;6.06;63.06;94696.75;6168698;23;20213;-64
2022/01/08 08:40:24;;;;;;;1.50;1.40;;;;;;;6.14;62.97;94699.53;6195215;23;20197;-62
2022/01/08 08:42:49;;;;;;;3.17;2.00;;;;;;;6.16;62.62;94702.84;6195788;23;20256;-63
2022/01/08 08:45:15;;;;;;;6.63;2.17;;;;;;;6.14;62.82;94694.31;6170209;23;20217;-63
2022/01/08 08:47:41;;;;;;;3.17;2.00;;;;;;;6.22;63.02;94695.44;6169301;23;20266;-63
2022/01/08 08:50:12;;;;;;;1.60;1.50;;;;;;;6.23;63.09;94702.31;6169930;23;20254;-64
2022/01/08 08:52:37;;;;;;;2.83;1.60;;;;;;;6.18;63.26;94694.88;6169802;23;20213;-65
2022/01/08 08:55:04;;;;;;;2.13;1.83;;;;;;;6.35;62.85;94701.25;6194288;23;20201;-62
2022/01/08 08:57:30;;;;;;;2.33;1.97;;;;;;;6.40;62.04;94688.63;6170353;23;20174;-63
2022/01/08 08:59:55;;;;;;;2.50;2.10;;;;;;;6.38;62.16;94695.75;6195131;23;20201;-67
2022/01/08 09:02:22;;;;;;;3.80;1.83;;;;;;;6.46;61.65;94687.25;6170027;23;20201;-62
2022/01/08 09:04:48;;;;;;;2.40;1.83;;;;;;;6.57;61.53;94685.34;6170387;23;20201;-62
2022/01/08 09:07:14;;;;;;;3.03;1.90;;;;;;;6.50;61.59;94670.38;6195301;23;20218;-60
2022/01/08 09:09:39;;;;;;;2.50;2.07;;;;;;;6.56;61.71;94668.03;6194635;23;20237;-62
2022/01/08 09:12:05;;;;;;;1.80;1.70;;;;;;;6.50;61.60;94668.56;6169824;23;20174;-62
2022/01/08 09:14:31;;;;;;;2.50;1.87;;;;;;;6.55;61.32;94666.38;6169899;23;20263;-61
2022/01/08 09:17:02;;;;;;;2.63;1.93;;;;;;;6.63;61.03;94670.94;6168814;23;20209;-61
2022/01/08 09:19:28;;;;;;;2.40;2.10;;;;;;;6.58;60.94;94666.09;6195409;23;20198;-60
2022/01/08 09:21:54;;;;;;;3.27;2.10;;;;;;;6.55;61.45;94669.00;6169011;23;20260;-60
2022/01/08 09:24:20;;;;;;;3.40;2.10;;;;;;;6.53;61.43;94663.06;6167617;23;20178;-62
2022/01/08 09:26:47;;;;;;;6.53;3.17;;;;;;;6.52;61.56;94650.13;6169715;23;20221;-60
2022/01/08 09:29:13;;;;;;;2.53;2.20;;;;;;;6.56;61.59;94643.69;6195119;23;20224;-61
2022/01/08 09:31:39;;;;;;;6.20;2.93;;;;;;;6.63;61.37;94647.41;6169080;23;20202;-63
2022/01/08 09:34:05;;;;;;;2.93;2.40;;;;;;;6.78;60.49;94632.13;6167348;23;20198;-61
2022/01/08 09:36:31;;;;;;;2.87;2.50;;;;;;;6.65;60.83;94642.03;6193714;23;20178;-62
2022/01/08 09:38:57;;;;;;;2.70;2.20;;;;;;;6.68;60.96;94633.91;6195548;23;20217;-61
2022/01/08 09:41:23;;;;;;;3.67;1.87;;;;;;;6.77;60.52;94625.28;6167850;23;20225;-61
2022/01/08 09:43:49;;;;;;;2.20;1.70;;;;;;;6.77;60.53;94622.66;6193867;23;20225;-62
2022/01/08 09:46:15;;;;;;;1.90;1.80;;;;;;;6.81;60.46;94610.94;6194099;23;20229;-60
2022/01/08 09:48:42;;;;;;;2.07;1.87;;;;;;;6.89;60.09;94621.53;6168799;23;20190;-62
2022/01/08 09:51:08;;;;;;;2.10;1.90;;;;;;;6.87;60.28;94622.63;6168645;23;20178;-62
2022/01/08 09:53:35;;;;;;;5.73;2.20;;;;;;;6.76;60.55;94616.63;6167615;23;20254;-62
2022/01/08 09:56:02;;;;;;;2.30;2.10;;;;;;;6.80;60.66;94615.34;6193340;23;20249;-62
2022/01/08 09:58:28;;;;;;;2.10;1.90;;;;;;;6.93;60.38;94617.69;6195013;23;20194;-62
2022/01/08 10:00:53;;;;;;;2.80;2.37;;;;;;;6.96;60.29;94611.38;6195105;23;20217;-60
2022/01/08 10:03:31;;;;;;;3.30;2.40;;;;;;;7.05;59.67;94606.09;6170041;23;20197;-62
2022/01/08 10:06:01;;;;;;;2.73;2.37;;;;;;;6.95;60.20;94604.47;6168850;23;20200;-60
2022/01/08 10:08:29;;;;;;;2.77;2.07;;;;;;;7.09;59.85;94600.63;6168623;23;20202;-60
2022/01/08 10:10:59;;;;;;;2.93;2.10;;;;;;;7.15;59.41;94602.66;6194360;23;20201;-61
2022/01/08 10:13:29;;;;;;;2.83;2.07;;;;;;;7.13;59.71;94596.75;6194577;23;20232;-61
2022/01/08 10:18:42;;;;;;;2.80;2.27;;;;;;;7.10;59.40;94589.19;6194147;23;20198;-62
2022/01/08 10:21:17;;;;;;;2.10;1.90;;;;;;;7.31;59.39;94591.63;6168660;23;20186;-62
2022/01/08 10:23:44;;;;;;;2.97;2.10;;;;;;;7.37;58.98;94585.81;6168116;23;20197;-62
2022/01/08 10:26:13;;;;;;;3.37;2.17;;;;;;;7.35;58.69;94577.25;6192247;23;20202;-64
2022/01/08 10:28:56;;;;;;;2.30;2.10;;;;;;;7.25;59.11;94582.53;6191839;23;20202;-64
2022/01/08 10:31:32;;;;;;;1.97;1.63;;;;;;;7.30;59.14;94577.72;6192782;23;20206;-64
2022/01/08 10:34:00;;;;;;;4.83;2.00;;;;;;;7.33;59.00;94576.59;6194667;23;20215;-63
2022/01/08 10:36:30;;;;;;;2.50;2.13;;;;;;;7.17;59.57;94574.59;6168406;23;20233;-62
2022/01/08 10:38:58;;;;;;;3.73;2.60;;;;;;;7.06;60.12;94563.31;6167702;23;21042;-64
2022/01/08 10:41:25;;;;;;;5.27;2.50;;;;;;;7.18;59.76;94557.91;6166433;23;20241;-62
2022/01/08 10:44:11;;;;;;;3.83;2.20;;;;;;;7.22;59.44;94564.53;6193570;23;20198;-64
2022/01/08 10:46:38;;;;;;;2.70;2.20;;;;;;;7.19;59.58;94562.19;6193584;23;20210;-62
2022/01/08 10:49:04;;;;;;;2.60;2.20;;;;;;;7.34;59.37;94554.72;6168692;23;20280;-61
2022/01/08 10:51:40;;;;;;;2.40;2.20;;;;;;;7.40;59.12;94552.31;6194271;23;20170;-62
2022/01/08 10:54:09;;;;;;;3.63;2.00;;;;;;;7.44;59.00;94551.09;6193617;23;20205;-61
2022/01/08 10:56:42;;;;;;;2.60;2.40;;;;;;;7.44;58.70;94539.81;6168579;23;20194;-62
2022/01/08 10:59:19;;;;;;;7.17;2.40;;;;;;;7.37;59.19;94536.94;6192608;23;20248;-61
2022/01/08 11:01:57;;;;;;;3.67;2.33;;;;;;;7.55;58.71;94538.78;6193146;23;20259;-63
2022/01/08 11:04:45;;;;;;;2.77;2.30;;;;;;;7.69;58.32;94535.69;6168043;23;20202;-62
2022/01/08 11:07:15;;;;;;;2.90;2.00;;;;;;;7.57;58.15;94532.44;6168474;23;20216;-62
2022/01/08 11:09:44;;;;;;;3.27;2.40;;;;;;;7.73;57.69;94529.19;6194942;23;20202;-63
2022/01/08 11:12:14;;;;;;;4.87;2.40;;;;;;;8.18;56.89;94525.75;6166785;23;20192;-63
2022/01/08 11:15:01;;;;;;;3.40;2.40;;;;;;;8.45;55.99;94526.69;6191025;23;20201;-63
2022/01/08 11:17:33;;;;;;;2.90;2.60;;;;;;;8.81;54.65;94517.75;6166356;23;20202;-63
2022/01/08 11:20:06;;;;;;;2.67;1.93;;;;;;;8.93;54.14;94520.16;6167095;23;20213;-61
2022/01/08 11:22:33;;;;;;;2.40;2.20;;;;;;;9.17;53.10;94520.31;6192908;23;20208;-61
2022/01/08 11:25:04;;;;;;;3.40;2.60;;;;;;;9.04;54.27;94525.97;6168207;23;20273;-61
2022/01/08 11:27:58;;;;;;;2.90;2.60;;;;;;;9.13;53.40;94523.38;6168129;23;20186;-63
2022/01/08 11:30:32;;;;;;;7.33;2.60;;;;;;;8.89;54.03;94521.44;6181386;23;20189;-63
2022/01/08 11:33:07;;;;;;;3.50;2.37;;;;;;;8.64;55.04;94517.81;6194027;23;20177;-64
2022/01/08 11:35:36;;;;;;;2.70;2.50;;;;;;;8.76;54.91;94514.78;6191669;23;20201;-63
2022/01/08 11:38:04;;;;;;;4.70;2.40;;;;;;;8.81;54.69;94520.38;6191147;23;20193;-65
2022/01/08 11:40:31;;;;;;;2.30;2.10;;;;;;;8.87;54.24;94518.94;6192632;23;20217;-65
2022/01/08 11:43:03;;;;;;;4.93;2.70;;;;;;;8.67;54.66;94507.03;6167296;23;20201;-63
2022/01/08 11:45:32;;;;;;;3.07;2.80;;;;;;;8.84;54.48;94509.59;6167585;23;20200;-62
2022/01/08 11:48:01;;;;;;;3.73;2.77;;;;;;;8.93;54.21;94507.06;6195977;23;20182;-62
2022/01/08 11:50:28;;;;;;;3.40;3.10;;;;;;;9.16;53.55;94502.91;6194612;23;20202;-62
2022/01/08 11:53:15;;;;;;;4.63;2.70;;;;;;;9.08;53.68;94494.19;6193689;23;20240;-63
2022/01/08 11:55:43;;;;;;;5.47;3.23;;;;;;;9.14;53.70;94485.69;6167514;23;20213;-64
2022/01/08 11:58:28;;;;;;;3.57;2.70;;;;;;;8.96;53.53;94485.75;6192815;23;20205;-64
2022/01/08 12:01:03;;;;;;;3.93;3.00;;;;;;;9.04;53.36;94476.13;6168370;23;20202;-62